ADDS METAR Data INFO
IDs: Format: Raw Decoded Include TAF

Data at: 0205 UTC 20 Sep 2017

KINJ 200155Z AUTO 15012G16KT 10SM CLR 31/22 A2984 RMK AO2 T03060215
KINJ 200135Z AUTO 15012KT 10SM CLR 31/21 A2982 RMK AO2 T03100211
KINJ 200115Z AUTO 16011KT 10SM CLR 31/21 A2982 RMK AO2 T03130213
KINJ 200055Z AUTO 16011KT 10SM CLR 32/21 A2981 RMK AO2 T03150213
KINJ 200035Z AUTO 16012KT 10SM CLR 32/21 A2980 RMK AO2 T03200211
KINJ 200015Z AUTO 16016G20KT 10SM CLR 32/21 A2980 RMK AO2 T03230213
KINJ 192355Z AUTO 16016KT 10SM CLR 33/21 A2980 RMK AO2 T03280210 10357 20327
KINJ 192335Z AUTO 17016G19KT 10SM CLR 33/21 A2980 RMK AO2 LTG DSNT W T03320207
KINJ 192315Z AUTO 17015G21KT 10SM CLR 34/20 A2979 RMK AO2 T03350200
KINJ 192255Z AUTO 17014G18KT 10SM CLR 34/20 A2979 RMK AO2 T03400198
KINJ 192235Z AUTO 17015KT 10SM CLR 34/20 A2979 RMK AO2 T03430199
KINJ 192215Z AUTO 16014G17KT 10SM CLR 35/20 A2979 RMK AO2 T03450198
KINJ 192155Z AUTO 16015KT 10SM SCT060 35/20 A2980 RMK AO2 T03470199
KINJ 192135Z AUTO 17012KT 10SM SCT060 35/21 A2981 RMK AO2 T03520205
KINJ 192115Z AUTO 17012G16KT 10SM SCT060 SCT070 35/20 A2982 RMK AO2 T03490204
KINJ 192055Z AUTO 18014G17KT 10SM SCT060 35/21 A2983 RMK AO2 T03480210
KINJ 192035Z AUTO 19012G18KT 10SM SCT050 35/21 A2984 RMK AO2 T03490210
KINJ 192015Z AUTO 17014KT 10SM SCT050 35/21 A2985 RMK AO2 T03490210
KINJ 191955Z AUTO 20014G20KT 10SM SCT046 35/22 A2986 RMK AO2 T03480215
KINJ 191935Z AUTO 19014G18KT 10SM SCT046 35/22 A2987 RMK AO2 T03460219
KINJ 191915Z AUTO 17013KT 10SM SCT044 34/22 A2988 RMK AO2 T03430222
KINJ 191855Z AUTO 20013G19KT 10SM SCT042 34/23 A2989 RMK AO2 T03410225
KINJ 191835Z AUTO 18013KT 10SM SCT040 34/23 A2990 RMK AO2 T03390226
KINJ 191815Z AUTO 17008G17KT 10SM SCT036 33/23 A2991 RMK AO2 T03330226
KINJ 191755Z AUTO 19012G19KT 10SM SCT034 33/23 A2992 RMK AO2 T03270228 10327 20246
KINJ 191735Z AUTO 17013G18KT 10SM SCT032 33/23 A2993 RMK AO2 T03260229
KINJ 191715Z AUTO 19012G17KT 10SM BKN028 32/23 A2994 RMK AO2 T03180231
KINJ 191655Z AUTO 20012G18KT 10SM BKN026 31/23 A2995 RMK AO2 T03080231
KINJ 191635Z AUTO 19011KT 10SM OVC024 31/23 A2995 RMK AO2 T03060232
KINJ 191615Z AUTO 19014G20KT 10SM OVC022 29/23 A2995 RMK AO2 T02940229
KINJ 191555Z AUTO 18014KT 10SM OVC020 29/23 A2995 RMK AO2 T02870230
KINJ 191535Z AUTO 18013G19KT 10SM OVC018 28/23 A2996 RMK AO2 T02830231
KINJ 191515Z AUTO 17014KT 10SM OVC018 28/23 A2996 RMK AO2 T02790230
KINJ 191455Z AUTO 17013KT 10SM OVC014 27/23 A2996 RMK AO2 LTG DSNT N T02730232
KINJ 191435Z AUTO 18012KT 10SM OVC012 27/23 A2995 RMK AO2 T02650232
KINJ 191415Z AUTO 17012G17KT 10SM OVC010 26/23 A2995 RMK AO2 T02610232
KINJ 191355Z AUTO 17011G16KT 10SM OVC010 26/23 A2995 RMK AO2 T02600232
KINJ 191335Z AUTO 16010KT 10SM OVC010 26/23 A2994 RMK AO2 T02550232
KINJ 191315Z AUTO 16010KT 10SM OVC012 25/23 A2994 RMK AO2 T02520230
KINJ 191255Z AUTO 16012G16KT 10SM OVC009 25/23 A2994 RMK AO2 T02500230
KINJ 191235Z AUTO 16010KT 10SM OVC009 25/23 A2994 RMK AO2 T02490230
KINJ 191215Z AUTO 16012KT 10SM OVC007 25/23 A2993 RMK AO2 T02480230
KINJ 191155Z AUTO 16010KT 10SM OVC007 25/23 A2994 RMK AO2 T02460230 10246 20237
KINJ 191135Z AUTO 16010KT 10SM OVC005 25/23 A2994 RMK AO2 T02450231
KINJ 191115Z AUTO 16010KT 10SM OVC003 24/23 A2993 RMK AO2 T02430231
KINJ 191055Z AUTO 15011KT 7SM OVC003 24/23 A2993 RMK AO2 T02400230
KINJ 191035Z AUTO 14008KT 7SM OVC003 24/23 A2994 RMK AO2 T02370230
KINJ 191015Z AUTO 15009KT 10SM OVC003 24/23 A2993 RMK AO2 T02380229
KINJ 190955Z AUTO 15007KT 10SM SCT007 24/23 A2993 RMK AO2 T02380227
KINJ 190935Z AUTO 14005KT 10SM SCT007 24/23 A2992 RMK AO2 T02390226
KINJ 190915Z AUTO 15005KT 10SM SCT007 24/23 A2993 RMK AO2 T02400227
KINJ 190855Z AUTO 16005KT 10SM CLR 24/23 A2993 RMK AO2 T02420228
KINJ 190835Z AUTO 17006KT 10SM CLR 24/23 A2992 RMK AO2 T02420227
KINJ 190815Z AUTO 16007KT 10SM CLR 24/23 A2992 RMK AO2 T02410225
KINJ 190755Z AUTO 16006KT 10SM CLR 24/23 A2992 RMK AO2 T02420225
KINJ 190735Z AUTO 16007KT 10SM CLR 24/23 A2992 RMK AO2 T02420225
KINJ 190715Z AUTO 15006KT 10SM CLR 24/22 A2992 RMK AO2 T02410221
KINJ 190655Z AUTO 14006KT 10SM CLR 24/22 A2992 RMK AO2 T02420222
KINJ 190635Z AUTO 14005KT 10SM CLR 24/22 A2993 RMK AO2 T02420221
KINJ 190615Z AUTO 14006KT 10SM CLR 25/22 A2993 RMK AO2 T02450220
KINJ 190555Z AUTO 15006KT 10SM CLR 25/22 A2993 RMK AO2 T02460221 10336 20246 403490202
KINJ 190535Z AUTO 14006KT 10SM CLR 25/22 A2994 RMK AO2 T02500221
KINJ 190515Z AUTO 14008KT 10SM CLR 25/22 A2994 RMK AO2 T02530221
KINJ 190455Z AUTO 14006KT 10SM CLR 26/22 A2995 RMK AO2 T02560221
KINJ 190435Z AUTO 13007KT 10SM CLR 26/22 A2995 RMK AO2 T02590221
KINJ 190415Z AUTO 13008KT 10SM CLR 26/22 A2995 RMK AO2 T02620221
KINJ 190355Z AUTO 14009KT 10SM CLR 27/22 A2994 RMK AO2 T02650218
KINJ 190335Z AUTO 13008KT 10SM CLR 27/22 A2995 RMK AO2 T02690215
KINJ 190315Z AUTO 13009G14KT 10SM CLR 27/21 A2994 RMK AO2 T02740214
KINJ 190255Z AUTO 13008KT 10SM CLR 28/21 A2994 RMK AO2 T02770211
KINJ 190235Z AUTO 12008KT 10SM CLR 29/21 A2994 RMK AO2 T02850213
KINJ 190215Z AUTO 13009KT 10SM CLR 29/22 A2993 RMK AO2 T02900218
KINJ 190155Z AUTO 12010KT 10SM CLR 30/22 A2992 RMK AO2 T02970222
KINJ 190135Z AUTO 13007KT 10SM CLR 30/20 A2992 RMK AO2 T02960202
KINJ 190115Z AUTO 12006KT 10SM CLR 30/18 A2991 RMK AO2 T03010176
KINJ 190055Z AUTO 14003KT 10SM CLR 31/18 A2990 RMK AO2 T03100176
KINJ 190035Z AUTO 15006KT 10SM CLR 32/17 A2989 RMK AO2 T03210172
KINJ 190015Z AUTO 15010KT 10SM CLR 33/17 A2989 RMK AO2 T03300170
KINJ 182355Z AUTO 16011KT 10SM CLR 34/17 A2990 RMK AO2 T03370167 10349 20311
KINJ 182335Z AUTO 15011G14KT 10SM CLR 34/17 A2989 RMK AO2 T03400172
KINJ 182315Z AUTO 16009KT 10SM CLR 34/16 A2990 RMK AO2 T03440162
KINJ 182255Z AUTO 16008KT 10SM CLR 35/17 A2990 RMK AO2 T03460173
KINJ 182235Z AUTO 20010KT 10SM CLR 35/17 A2990 RMK AO2 T03460167
KINJ 182215Z AUTO 19009KT 10SM CLR 35/17 A2990 RMK AO2 T03450170
KINJ 182155Z AUTO 18007KT 10SM CLR 35/18 A2990 RMK AO2 T03470178
KINJ 182135Z AUTO 17009KT 150V210 10SM CLR 35/18 A2991 RMK AO2 T03460176
KINJ 182115Z AUTO 21004G08KT 10SM CLR 34/18 A2992 RMK AO2 T03430177
KINJ 182055Z AUTO 12004KT 10SM SCT060 33/18 A2993 RMK AO2 T03340179
KINJ 182035Z AUTO 20006KT 10SM SCT060 33/19 A2994 RMK AO2 T03340186
KINJ 182015Z AUTO 16006KT 10SM SCT065 34/19 A2995 RMK AO2 LTG DSNT SE T03370186
KINJ 181955Z AUTO 17004KT 10SM SCT050 SCT065 33/19 A2996 RMK AO2 T03290188
KINJ 181935Z AUTO 17003KT 10SM SCT050 BKN055 BKN065 33/20 A2997 RMK AO2 T03330196
KINJ 181915Z AUTO 00000KT 10SM SCT048 SCT055 32/20 A2998 RMK AO2 T03230202
KINJ 181855Z AUTO 00000KT 10SM SCT043 SCT050 31/20 A3000 RMK AO2 T03140201
KINJ 181835Z AUTO 15007KT 10SM SCT041 32/21 A3001 RMK AO2 T03170211
KINJ 181815Z AUTO 17004KT 10SM CLR 31/21 A3003 RMK AO2 T03130210
KINJ 181755Z AUTO 14005KT 10SM CLR 31/22 A3004 RMK AO2 T03140216 10315 20206
KINJ 181735Z AUTO 17006KT 10SM CLR 31/22 A3005 RMK AO2 T03070215
KINJ 181715Z AUTO 17003KT 10SM SCT033 30/22 A3006 RMK AO2 T02960216
KINJ 181655Z AUTO 23004KT 10SM SCT029 SCT046 SCT060 30/22 A3006 RMK AO2 T02990220
KINJ 181635Z AUTO 00000KT 10SM SCT029 SCT046 BKN060 29/22 A3006 RMK AO2 T02900220
KINJ 181615Z AUTO 22004KT 10SM SCT027 SCT050 29/22 A3006 RMK AO2 T02900217
KINJ 181555Z AUTO 23005KT 10SM SCT026 SCT050 29/22 A3006 RMK AO2 T02880219
KINJ 181535Z AUTO 22005KT 10SM CLR 29/22 A3005 RMK AO2 T02880220
KINJ 181515Z AUTO 17005KT 10SM SCT050 28/22 A3004 RMK AO2 T02810218
KINJ 181455Z AUTO 18005KT 10SM SCT047 SCT050 28/22 A3004 RMK AO2 T02750216
KINJ 181435Z AUTO 17004KT 10SM CLR 27/21 A3003 RMK AO2 T02650210
KINJ 181415Z AUTO 16004KT 10SM CLR 26/21 A3003 RMK AO2 T02560206